Terminal Aerodrome Forecast
Issued by NWS

Home | Current Version | Previous Version | Text Only | Print | Product List | Glossary On
Versions: 1 2 3 4 5 6 7 8 9 10 11 12 13 14 15
000
FTUS43 KAPX 261120
TAFPLN
TAF
KPLN 261120Z 2612/2712 22008KT P6SM VCSH FEW015 BKN045
     FM261400 24011G20KT P6SM BKN050
     FM261800 24014G24KT P6SM -SHRA BKN030
     FM262000 24014G23KT P6SM -SHRA SCT025 OVC035
     FM270100 26011G19KT P6SM -SHRA SCT025 OVC030
     FM270700 25010G18KT P6SM -SHRA OVC018=

USA.gov is the U.S. government's official web portal to all federal, state and local government web resources and services.